createdAt,value
2023-02-27T00:04:57.548Z,6.64
2023-02-27T00:10:04.844Z,6.40
2023-02-27T00:15:15.530Z,6.21
2023-02-27T00:20:23.618Z,6.01
2023-02-27T00:25:36.117Z,5.80
2023-02-27T00:30:39.523Z,5.56
2023-02-27T00:35:46.010Z,5.40
2023-02-27T00:40:54.307Z,5.52
2023-02-27T00:45:59.556Z,5.72
2023-02-27T00:51:07.549Z,5.93
2023-02-27T00:56:12.738Z,6.07
2023-02-27T01:01:21.282Z,6.17
2023-02-27T01:06:25.861Z,6.18
2023-02-27T01:11:33.311Z,6.11
2023-02-27T01:16:41.604Z,6.18
2023-02-27T01:21:46.994Z,6.27
2023-02-27T01:27:01.338Z,6.31
2023-02-27T01:32:09.783Z,6.34
2023-02-27T01:37:18.555Z,6.28
2023-02-27T01:42:32.727Z,6.23
2023-02-27T01:47:38.680Z,6.22
2023-02-27T01:52:44.561Z,6.19
2023-02-27T01:57:50.364Z,5.98
2023-02-27T02:05:19.622Z,5.99
2023-02-27T02:10:26.691Z,6.08
2023-02-27T02:15:37.378Z,6.12
2023-02-27T02:21:14.012Z,6.11
2023-02-27T02:26:49.806Z,6.07
2023-02-27T02:32:40.077Z,6.05
2023-02-27T02:38:09.208Z,6.03
2023-02-27T02:43:43.195Z,5.87
2023-02-27T02:49:33.656Z,5.63
2023-02-27T02:54:54.618Z,5.67
2023-02-27T03:00:28.603Z,5.80
2023-02-27T03:05:54.107Z,5.91
2023-02-27T03:11:03.586Z,5.98
2023-02-27T03:16:56.019Z,6.01
2023-02-27T03:22:10.185Z,5.99
2023-02-27T03:27:16.811Z,5.97
2023-02-27T03:32:41.097Z,5.91
2023-02-27T03:38:01.018Z,5.74
2023-02-27T03:43:33.205Z,5.64
2023-02-27T03:48:45.692Z,5.64
2023-02-27T03:53:58.694Z,5.71
2023-02-27T03:59:04.786Z,5.71
2023-02-27T04:04:15.543Z,5.61
2023-02-27T04:10:17.463Z,5.69
2023-02-27T04:15:42.009Z,5.74
2023-02-27T04:21:11.272Z,5.80
2023-02-27T04:26:32.441Z,5.81
2023-02-27T04:32:00.058Z,5.74
2023-02-27T04:37:20.705Z,5.63
2023-02-27T04:42:34.220Z,5.40
2023-02-27T04:47:49.317Z,5.36
2023-02-27T04:53:07.134Z,5.27
2023-02-27T04:58:21.371Z,5.18
2023-02-27T05:09:38.697Z,5.10
2023-02-27T05:14:50.116Z,5.11
2023-02-27T05:19:52.642Z,5.09
2023-02-27T05:25:36.014Z,5.15
2023-02-27T05:30:52.846Z,5.13
2023-02-27T05:36:32.582Z,5.09
2023-02-27T05:42:00.541Z,5.11
2023-02-27T05:47:08.141Z,5.16
2023-02-27T05:52:15.495Z,5.11
2023-02-27T05:57:26.052Z,5.09
2023-02-27T06:02:29.422Z,5.06
2023-02-27T06:07:32.776Z,5.02
2023-02-27T06:12:34.715Z,4.97
2023-02-27T06:17:36.616Z,4.96
2023-02-27T06:22:38.626Z,4.93
2023-02-27T06:27:40.727Z,4.91
2023-02-27T06:32:43.016Z,4.85
2023-02-27T06:37:45.265Z,4.84
2023-02-27T06:42:49.607Z,4.84
2023-02-27T06:47:52.372Z,4.85
2023-02-27T06:52:55.420Z,4.88
2023-02-27T06:57:57.408Z,4.93
2023-02-27T07:03:00.458Z,4.95
2023-02-27T07:08:04.049Z,4.93
2023-02-27T07:13:06.165Z,4.97
2023-02-27T07:18:08.254Z,4.98
2023-02-27T07:23:10.846Z,4.97
2023-02-27T07:28:12.909Z,4.94
2023-02-27T07:33:15.414Z,4.94
2023-02-27T07:38:19.097Z,4.95
2023-02-27T07:43:26.732Z,4.98
2023-02-27T07:48:29.656Z,5.03
2023-02-27T07:53:31.788Z,5.09
2023-02-27T07:58:33.792Z,5.11
2023-02-27T08:03:35.936Z,5.11
2023-02-27T08:08:38.235Z,5.11
2023-02-27T08:13:59.568Z,5.12
2023-02-27T08:19:03.326Z,5.23
2023-02-27T08:24:05.440Z,5.33
2023-02-27T08:29:07.864Z,5.42
2023-02-27T08:34:10.947Z,5.50
2023-02-27T08:39:13.691Z,5.54
2023-02-27T08:44:16.541Z,5.62
2023-02-27T08:49:21.436Z,5.70
2023-02-27T08:54:23.840Z,5.76
2023-02-27T08:59:25.843Z,5.89
2023-02-27T09:04:27.892Z,6.06
2023-02-27T09:09:29.972Z,6.49
2023-02-27T09:14:32.157Z,7.02
2023-02-27T09:19:37.184Z,7.37
2023-02-27T09:24:39.307Z,7.90
2023-02-27T09:29:44.362Z,8.48
2023-02-27T09:34:46.390Z,9.03
2023-02-27T09:39:48.624Z,9.31
2023-02-27T09:44:53.964Z,9.70
2023-02-27T09:50:05.356Z,9.94
2023-02-27T09:55:17.369Z,10.05
2023-02-27T10:00:31.174Z,10.24
2023-02-27T10:06:08.909Z,10.54
2023-02-27T10:11:16.720Z,10.70
2023-02-27T10:16:30.121Z,10.79
2023-02-27T10:21:40.664Z,10.83
2023-02-27T10:26:45.020Z,11.06
2023-02-27T10:32:00.252Z,11.51
2023-02-27T10:37:05.355Z,11.80
2023-02-27T10:42:12.525Z,11.90
2023-02-27T10:47:17.703Z,11.90
2023-02-27T10:52:19.802Z,12.05
2023-02-27T10:57:29.398Z,11.92
2023-02-27T11:02:39.089Z,11.84
2023-02-27T11:07:41.657Z,12.06
2023-02-27T11:13:01.985Z,12.27
2023-02-27T11:18:37.880Z,12.23
2023-02-27T11:24:08.065Z,12.22
2023-02-27T11:29:20.474Z,12.18
2023-02-27T11:34:42.826Z,12.26
2023-02-27T11:40:03.137Z,12.34
2023-02-27T11:46:04.248Z,12.62
2023-02-27T11:51:07.827Z,12.90
2023-02-27T11:56:18.600Z,13.37
2023-02-27T12:01:43.708Z,13.55
2023-02-27T12:07:09.622Z,13.46
2023-02-27T12:12:40.507Z,13.56
2023-02-27T12:18:35.681Z,13.55
2023-02-27T12:23:49.511Z,13.61
2023-02-27T12:29:00.491Z,12.95
2023-02-27T12:34:40.936Z,12.82
2023-02-27T12:39:45.130Z,12.49
2023-02-27T12:45:26.844Z,12.16
2023-02-27T12:50:57.855Z,11.87
2023-02-27T12:56:23.003Z,11.52
2023-02-27T13:01:58.726Z,11.17
2023-02-27T13:07:00.684Z,10.67
2023-02-27T13:12:14.742Z,10.46
2023-02-27T13:17:18.835Z,10.24
2023-02-27T13:22:30.530Z,10.17
2023-02-27T13:27:37.588Z,9.91
2023-02-27T13:32:49.326Z,9.72
2023-02-27T13:38:08.161Z,9.63
2023-02-27T13:43:46.485Z,9.56
2023-02-27T13:49:29.710Z,9.53
2023-02-27T13:54:34.648Z,9.60
2023-02-27T13:59:40.132Z,9.61
2023-02-27T14:04:51.642Z,9.59
2023-02-27T14:10:05.489Z,9.54
2023-02-27T14:15:30.582Z,9.52
2023-02-27T14:20:32.751Z,9.45
2023-02-27T14:25:40.571Z,9.37
2023-02-27T14:30:51.482Z,9.25
2023-02-27T14:35:59.170Z,9.20
2023-02-27T14:41:01.238Z,9.11
2023-02-27T14:46:12.659Z,9.02
2023-02-27T14:51:15.571Z,8.99
2023-02-27T14:56:19.915Z,8.88
2023-02-27T15:01:22.183Z,8.77
2023-02-27T15:06:36.556Z,8.80
2023-02-27T15:11:43.156Z,8.72
2023-02-27T15:16:47.183Z,8.65
2023-02-27T15:21:54.283Z,8.55
2023-02-27T15:27:00.870Z,8.52
2023-02-27T15:32:05.927Z,8.50
2023-02-27T15:37:07.999Z,8.49
2023-02-27T15:42:10.314Z,8.45
2023-02-27T15:47:18.736Z,8.42
2023-02-27T15:52:26.132Z,8.42
2023-02-27T15:57:28.486Z,8.47
2023-02-27T16:02:39.656Z,8.48
2023-02-27T16:07:43.350Z,8.49
2023-02-27T16:12:46.589Z,8.52
2023-02-27T16:18:27.419Z,8.57
2023-02-27T16:23:31.977Z,8.65
2023-02-27T16:28:51.063Z,8.73
2023-02-27T16:33:55.024Z,8.77
2023-02-27T16:38:57.221Z,8.78
2023-02-27T16:43:59.234Z,8.79
2023-02-27T16:49:17.887Z,8.84
2023-02-27T16:54:21.197Z,8.87
2023-02-27T16:59:36.330Z,8.83
2023-02-27T17:04:38.366Z,8.80
2023-02-27T17:09:40.348Z,8.80
2023-02-27T17:14:42.659Z,8.79
2023-02-27T17:19:45.252Z,8.80
2023-02-27T17:24:47.024Z,8.80
2023-02-27T17:29:49.137Z,8.83
2023-02-27T17:34:55.621Z,8.80
2023-02-27T17:39:57.577Z,8.79
2023-02-27T17:45:01.316Z,8.81
2023-02-27T17:50:04.944Z,8.85
2023-02-27T17:55:12.805Z,8.87
2023-02-27T18:00:15.477Z,8.89
2023-02-27T18:05:18.171Z,8.93
2023-02-27T18:10:20.170Z,8.92
2023-02-27T18:15:22.375Z,8.92
2023-02-27T18:20:24.412Z,8.83
2023-02-27T18:25:26.699Z,8.66
2023-02-27T18:30:31.243Z,8.42
2023-02-27T18:35:33.371Z,8.19
2023-02-27T18:40:35.364Z,8.00
2023-02-27T18:45:37.982Z,7.79
2023-02-27T18:50:40.293Z,7.59
2023-02-27T18:55:42.435Z,7.41
2023-02-27T19:00:44.427Z,7.35
2023-02-27T19:05:46.816Z,7.33
2023-02-27T19:10:48.971Z,7.28
2023-02-27T19:15:51.489Z,7.29
2023-02-27T19:20:54.832Z,7.35
2023-02-27T19:26:01.091Z,7.36
2023-02-27T19:31:10.925Z,7.41
2023-02-27T19:36:15.465Z,7.46
2023-02-27T19:41:18.448Z,7.52
2023-02-27T19:46:24.347Z,7.56
2023-02-27T19:51:26.779Z,7.58
2023-02-27T19:56:30.053Z,7.62
2023-02-27T20:01:38.898Z,7.59
2023-02-27T20:06:44.112Z,7.56
2023-02-27T20:11:48.353Z,7.60
2023-02-27T20:16:50.552Z,7.64
2023-02-27T20:21:54.441Z,7.68
2023-02-27T20:26:59.096Z,7.67
2023-02-27T20:32:01.627Z,7.65
2023-02-27T20:37:04.066Z,7.67
2023-02-27T20:42:08.250Z,7.71
2023-02-27T20:47:10.501Z,7.75
2023-02-27T20:52:18.624Z,7.81
2023-02-27T20:57:21.109Z,7.84
2023-02-27T21:02:23.342Z,7.88
2023-02-27T21:07:25.612Z,7.91
2023-02-27T21:12:27.622Z,7.97
2023-02-27T21:17:29.686Z,8.05
2023-02-27T21:22:32.561Z,8.08
2023-02-27T21:27:34.695Z,8.14
2023-02-27T21:32:37.010Z,8.23
2023-02-27T21:37:46.788Z,8.32
2023-02-27T21:42:49.619Z,8.35
2023-02-27T21:47:51.793Z,8.34
2023-02-27T21:52:53.811Z,8.34
2023-02-27T21:57:57.071Z,8.37
2023-02-27T22:02:59.294Z,8.38
2023-02-27T22:08:01.357Z,8.40
2023-02-27T22:13:03.389Z,8.40
2023-02-27T22:18:06.570Z,8.41
2023-02-27T22:23:08.853Z,8.39
2023-02-27T22:28:11.005Z,8.40
2023-02-27T22:33:13.224Z,8.43
2023-02-27T22:38:15.288Z,8.44
2023-02-27T22:43:17.645Z,8.41
2023-02-27T22:48:19.657Z,8.38
2023-02-27T22:53:22.716Z,8.38
2023-02-27T22:58:25.300Z,8.40
2023-02-27T23:03:27.305Z,8.31
2023-02-27T23:08:29.539Z,8.24
2023-02-27T23:13:32.225Z,8.23
2023-02-27T23:18:34.351Z,8.23
2023-02-27T23:23:36.768Z,8.21
2023-02-27T23:28:39.116Z,8.19
2023-02-27T23:33:41.384Z,8.20
2023-02-27T23:38:46.531Z,8.17
2023-02-27T23:43:52.631Z,8.13
2023-02-27T23:48:54.616Z,8.05
2023-02-27T23:53:56.544Z,8.05
2023-02-27T23:59:04.518Z,8.02
